Time;durP1;ratioP1;P1;durP2;ratioP2;P2;SDS_P1;SDS_P2;PMS_P1;PMS_P2;Temp;Humidity;BMP_temperature;BMP_pressure;BME280_temperature;BME280_humidity;BME280_pressure;Samples;Min_cycle;Max_cycle;Signal;HPM_P1;HPM_P2
2022/04/25 00:01:22;;;;;;;23.87;21.57;;;11.50;99.90;;;;;;6118003;23;20417;-88
2022/04/25 00:03:49;;;;;;;24.67;22.27;;;11.50;99.90;;;;;;6122252;23;20958;-88
2022/04/25 00:06:15;;;;;;;23.90;21.60;;;11.50;99.90;;;;;;6118922;23;20419;-88
2022/04/25 00:08:43;;;;;;;24.27;22.07;;;11.50;99.90;;;;;;6124846;23;20439;-88
2022/04/25 00:11:10;;;;;;;21.40;19.30;;;11.50;99.90;;;;;;6119711;23;20404;-88
2022/04/25 00:13:37;;;;;;;25.07;22.67;;;11.50;99.90;;;;;;6106126;23;20448;-88
2022/04/25 00:16:05;;;;;;;24.93;22.50;;;11.50;99.90;;;;;;6100965;23;20397;-88
2022/04/25 00:18:32;;;;;;;26.13;23.60;;;11.50;99.90;;;;;;6100182;23;20479;-89
2022/04/25 00:21:00;;;;;;;23.90;21.50;;;11.40;99.90;;;;;;6100042;23;20418;-88
2022/04/25 00:23:27;;;;;;;25.07;22.57;;;11.40;99.90;;;;;;6101598;23;20439;-88
2022/04/25 00:25:55;;;;;;;23.80;21.50;;;11.40;99.90;;;;;;6098592;23;20416;-88
2022/04/25 00:28:22;;;;;;;23.33;21.13;;;11.40;99.90;;;;;;6097597;23;20951;-88
2022/04/25 00:30:49;;;;;;;25.27;22.83;;;11.40;99.90;;;;;;6097415;23;20425;-88
2022/04/25 00:33:16;;;;;;;25.13;22.70;;;11.40;99.90;;;;;;6101185;23;20423;-87
2022/04/25 00:35:43;;;;;;;25.00;22.60;;;11.40;99.90;;;;;;6123709;23;20414;-88
2022/04/25 00:38:10;;;;;;;25.80;23.20;;;11.40;99.90;;;;;;6120073;23;20425;-88
2022/04/25 00:40:37;;;;;;;26.17;23.57;;;11.40;99.90;;;;;;6098645;23;20755;-89
2022/04/25 00:43:06;;;;;;;28.70;25.80;;;11.40;99.90;;;;;;6097650;23;20890;-88
2022/04/25 00:45:33;;;;;;;28.97;26.03;;;11.30;99.90;;;;;;6097844;23;20415;-89
2022/04/25 00:48:00;;;;;;;28.00;25.07;;;11.30;99.90;;;;;;6098161;23;20487;-88
2022/04/25 00:50:28;;;;;;;27.27;24.50;;;11.40;99.90;;;;;;6098755;23;20839;-88
2022/04/25 00:52:55;;;;;;;27.80;24.97;;;11.30;99.90;;;;;;6099069;23;20929;-89
2022/04/25 00:55:22;;;;;;;25.83;23.33;;;11.30;99.90;;;;;;6117273;23;20412;-88
2022/04/25 00:57:51;;;;;;;26.93;24.10;;;11.40;99.90;;;;;;6120067;23;20717;-88
2022/04/25 01:00:19;;;;;;;27.00;24.50;;;11.40;99.90;;;;;;6097937;23;20413;-89
2022/04/25 01:02:46;;;;;;;26.33;23.83;;;11.30;99.90;;;;;;6097236;23;20409;-88
2022/04/25 01:05:13;;;;;;;25.67;23.27;;;11.30;99.90;;;;;;6105122;23;20413;-87
2022/04/25 01:07:40;;;;;;;25.97;23.57;;;11.30;99.90;;;;;;6122571;23;20436;-88
2022/04/25 01:10:08;;;;;;;28.10;25.27;;;11.20;99.90;;;;;;6108095;23;20426;-88
2022/04/25 01:12:35;;;;;;;28.73;25.87;;;11.20;99.90;;;;;;6101102;23;20413;-88
2022/04/25 01:15:03;;;;;;;29.30;26.50;;;11.20;99.90;;;;;;6097704;23;20492;-88
2022/04/25 01:17:31;;;;;;;27.67;25.03;;;11.10;99.90;;;;;;6097487;23;20878;-87
2022/04/25 01:19:59;;;;;;;29.50;26.50;;;11.00;99.90;;;;;;6097713;23;20786;-88
2022/04/25 01:22:31;;;;;;;29.90;26.87;;;11.00;99.90;;;;;;6097626;23;20420;-88
2022/04/25 01:27:44;;;;;;;28.90;26.20;;;11.00;99.90;;;;;;6097428;23;20765;-88
2022/04/25 01:30:11;;;;;;;29.47;26.67;;;11.10;99.90;;;;;;6097522;23;20419;-87
2022/04/25 01:32:38;;;;;;;28.50;25.80;;;11.10;99.90;;;;;;6097390;23;20760;-89
2022/04/25 01:35:06;;;;;;;30.00;26.90;;;11.10;99.90;;;;;;6097711;23;21257;-88
2022/04/25 01:37:33;;;;;;;30.30;27.30;;;11.10;99.90;;;;;;6099394;23;20409;-88
2022/04/25 01:40:01;;;;;;;29.67;26.60;;;11.10;99.90;;;;;;6098421;23;20413;-88
2022/04/25 01:42:28;;;;;;;29.93;27.10;;;11.10;99.90;;;;;;6098234;23;20416;-88
2022/04/25 01:44:55;;;;;;;30.93;28.10;;;11.00;99.90;;;;;;6102993;23;20440;-86
2022/04/25 01:47:21;;;;;;;29.57;26.67;;;11.10;99.90;;;;;;6124315;23;20401;-87
2022/04/25 01:49:48;;;;;;;32.77;29.67;;;11.10;99.90;;;;;;6123297;23;20428;-88
2022/04/25 01:52:23;;;;;;;32.10;29.10;;;11.10;99.90;;;;;;6106558;23;20404;-88
2022/04/25 01:54:50;;;;;;;31.67;28.57;;;11.20;99.90;;;;;;6105067;23;20455;-87
2022/04/25 01:57:18;;;;;;;31.57;28.37;;;11.10;99.90;;;;;;6102089;23;20798;-87
2022/04/25 01:59:46;;;;;;;30.20;27.30;;;11.10;99.90;;;;;;6100261;23;20405;-88
2022/04/25 02:02:13;;;;;;;30.60;27.60;;;11.10;99.90;;;;;;6096642;23;20417;-87
2022/04/25 02:04:40;;;;;;;32.77;29.40;;;11.10;99.90;;;;;;6097216;23;20441;-88
2022/04/25 02:07:09;;;;;;;33.70;30.43;;;11.10;99.90;;;;;;6096887;23;20420;-88
2022/04/25 02:09:36;;;;;;;33.10;30.00;;;11.00;99.90;;;;;;6096904;23;20397;-88
2022/04/25 02:12:04;;;;;;;32.00;28.77;;;11.00;99.90;;;;;;6097220;23;20413;-87
2022/04/25 02:14:32;;;;;;;32.47;29.20;;;11.00;99.90;;;;;;6096492;23;20866;-88
2022/04/25 02:17:00;;;;;;;32.23;29.17;;;11.10;99.90;;;;;;6096611;23;20413;-87
2022/04/25 02:19:27;;;;;;;32.77;29.53;;;11.00;99.90;;;;;;6097571;23;20891;-88
2022/04/25 02:21:54;;;;;;;33.33;30.00;;;11.00;99.90;;;;;;6102382;23;20412;-87
2022/04/25 02:24:20;;;;;;;34.30;31.00;;;11.00;99.90;;;;;;6097679;23;20456;-88
2022/04/25 02:26:48;;;;;;;31.33;28.37;;;11.00;99.90;;;;;;6096553;23;20910;-88
2022/04/25 02:29:15;;;;;;;32.90;29.37;;;11.00;99.90;;;;;;6096254;23;20516;-88
2022/04/25 02:31:43;;;;;;;32.07;29.00;;;11.00;99.90;;;;;;6097052;23;20411;-88
2022/04/25 02:34:10;;;;;;;33.87;30.67;;;11.00;99.90;;;;;;6099447;23;20428;-87
2022/04/25 02:36:36;;;;;;;31.17;28.07;;;11.00;99.90;;;;;;6122381;23;20409;-88
2022/04/25 02:39:04;;;;;;;32.87;29.60;;;11.00;99.90;;;;;;6113619;23;20557;-88
2022/04/25 02:41:31;;;;;;;31.50;28.40;;;11.10;99.90;;;;;;6110812;23;20843;-88
2022/04/25 02:43:58;;;;;;;33.40;30.20;;;11.10;99.90;;;;;;6118494;23;20449;-88
2022/04/25 02:46:24;;;;;;;33.40;30.17;;;11.00;99.90;;;;;;6117075;23;20393;-88
2022/04/25 02:48:52;;;;;;;35.17;31.40;;;11.00;99.90;;;;;;6121989;23;20452;-88
2022/04/25 02:51:19;;;;;;;32.73;29.33;;;11.00;99.90;;;;;;6114702;23;20400;-87
2022/04/25 02:53:46;;;;;;;31.57;28.30;;;11.00;99.90;;;;;;6125476;23;20423;-86
2022/04/25 02:56:12;;;;;;;32.07;29.03;;;11.00;99.90;;;;;;6124603;23;20440;-87
2022/04/25 02:58:40;;;;;;;31.77;28.47;;;10.90;99.90;;;;;;6124218;23;20457;-87
2022/04/25 03:01:08;;;;;;;32.13;28.93;;;10.90;99.90;;;;;;6124681;23;20413;-86
2022/04/25 03:03:37;;;;;;;31.57;28.50;;;11.00;99.90;;;;;;6104352;23;20434;-88
2022/04/25 03:06:07;;;;;;;31.97;28.87;;;11.00;99.90;;;;;;6121464;23;20455;-87
2022/04/25 03:08:35;;;;;;;33.30;30.03;;;11.00;99.90;;;;;;6124574;23;20427;-86
2022/04/25 03:11:04;;;;;;;32.40;29.20;;;10.90;99.90;;;;;;6124010;23;20417;-87
2022/04/25 03:13:34;;;;;;;31.23;28.27;;;10.90;99.90;;;;;;6122757;23;20456;-87
2022/04/25 03:16:01;;;;;;;31.17;27.97;;;10.90;99.90;;;;;;6123050;23;20385;-87
2022/04/25 03:18:29;;;;;;;28.87;26.07;;;10.90;99.90;;;;;;6123581;23;20467;-87
2022/04/25 03:20:56;;;;;;;30.67;27.87;;;10.90;99.90;;;;;;6115439;23;20404;-88
2022/04/25 03:23:25;;;;;;;32.40;29.27;;;10.90;99.90;;;;;;6102073;23;20419;-88
2022/04/25 03:25:52;;;;;;;30.87;27.90;;;10.80;99.90;;;;;;6100324;23;20415;-87
2022/04/25 03:28:20;;;;;;;33.63;30.33;;;10.70;99.90;;;;;;6099279;23;20448;-88
2022/04/25 03:30:46;;;;;;;34.70;30.97;;;10.50;99.90;;;;;;6099367;23;20476;-88
2022/04/25 03:33:15;;;;;;;34.37;30.80;;;10.40;99.90;;;;;;6100608;23;20416;-88
2022/04/25 03:35:46;;;;;;;32.90;29.63;;;10.20;99.90;;;;;;6098258;23;20729;-87
2022/04/25 03:38:14;;;;;;;35.20;31.40;;;10.10;99.90;;;;;;6099224;23;20397;-88
2022/04/25 03:40:43;;;;;;;34.40;30.83;;;10.10;99.90;;;;;;6098123;23;20400;-88
2022/04/25 03:43:10;;;;;;;32.73;29.00;;;10.10;99.90;;;;;;6098663;23;20447;-87
2022/04/25 03:45:37;;;;;;;36.50;32.60;;;10.20;99.90;;;;;;6097328;23;20760;-87
2022/04/25 03:48:04;;;;;;;33.63;30.43;;;10.30;99.90;;;;;;6098969;23;20467;-88
2022/04/25 03:50:32;;;;;;;35.63;31.60;;;10.30;99.90;;;;;;6097936;23;20448;-88
2022/04/25 03:53:05;;;;;;;34.87;31.27;;;10.40;99.90;;;;;;6097049;23;20408;-88
2022/04/25 03:58:19;;;;;;;32.03;28.83;;;10.50;99.90;;;;;;6111775;23;20437;-87
2022/04/25 04:00:45;;;;;;;33.00;29.40;;;10.50;99.90;;;;;;6101031;23;20824;-86
2022/04/25 04:03:14;;;;;;;33.87;30.27;;;10.50;99.90;;;;;;6097286;23;20416;-88
2022/04/25 04:05:42;;;;;;;36.07;32.47;;;10.60;99.90;;;;;;6096560;23;20930;-89
2022/04/25 04:08:09;;;;;;;34.30;30.67;;;10.60;99.90;;;;;;6096831;23;20440;-88
2022/04/25 04:10:36;;;;;;;34.30;30.83;;;10.50;99.90;;;;;;6099147;23;20479;-87
2022/04/25 04:13:02;;;;;;;33.70;30.20;;;10.50;99.90;;;;;;6097857;23;20415;-88
2022/04/25 04:15:31;;;;;;;34.50;29.77;;;10.50;99.90;;;;;;6129570;23;20463;-83
2022/04/25 04:17:57;;;;;;;35.93;32.10;;;10.60;99.90;;;;;;6138821;23;20410;-81
2022/04/25 04:20:24;;;;;;;35.13;31.47;;;10.50;99.90;;;;;;6138115;23;20918;-82
2022/04/25 04:22:51;;;;;;;37.17;33.37;;;10.50;99.90;;;;;;6138093;23;20475;-82
2022/04/25 04:25:18;;;;;;;33.10;29.70;;;10.60;99.90;;;;;;6123199;23;20520;-82
2022/04/25 04:27:45;;;;;;;35.40;30.93;;;10.60;99.90;;;;;;6117897;23;20484;-83
2022/04/25 04:30:13;;;;;;;33.83;30.53;;;10.60;99.90;;;;;;6113823;23;20432;-82
2022/04/25 04:32:42;;;;;;;34.23;30.53;;;10.70;99.90;;;;;;6117235;23;20406;-83
2022/04/25 04:35:11;;;;;;;34.70;31.00;;;10.70;99.90;;;;;;6119288;23;20420;-82
2022/04/25 04:37:39;;;;;;;34.00;30.50;;;10.70;99.90;;;;;;6117060;23;20401;-82
2022/04/25 04:42:48;;;;;;;33.43;30.03;;;10.70;99.90;;;;;;6087710;23;20393;-83
2022/04/25 04:45:15;;;;;;;34.57;31.10;;;10.70;99.90;;;;;;6114472;23;20431;-83
2022/04/25 04:47:43;;;;;;;35.47;32.07;;;10.70;99.90;;;;;;6116796;23;20404;-83
2022/04/25 04:50:14;;;;;;;37.43;33.60;;;10.70;99.90;;;;;;6112451;23;20468;-83
2022/04/25 04:52:43;;;;;;;37.73;33.90;;;10.70;99.90;;;;;;6108549;23;20397;-83
2022/04/25 04:55:10;;;;;;;33.33;29.93;;;10.70;99.90;;;;;;6104796;23;20428;-83
2022/04/25 04:57:38;;;;;;;34.23;30.80;;;10.80;99.90;;;;;;6105026;23;20408;-82
2022/04/25 05:00:16;;;;;;;34.97;31.47;;;10.90;99.90;;;;;;6100878;23;20413;-85
2022/04/25 05:02:45;;;;;;;35.30;31.53;;;10.90;99.90;;;;;;6103467;23;20448;-84
2022/04/25 05:05:12;;;;;;;37.27;29.40;;;11.00;99.90;;;;;;6100095;23;20417;-82
2022/04/25 05:07:39;;;;;;;34.10;30.50;;;11.10;99.90;;;;;;6101898;23;20427;-81
2022/04/25 05:10:07;;;;;;;34.23;30.77;;;11.10;99.90;;;;;;6104820;23;20503;-82
2022/04/25 05:12:47;;;;;;;34.30;30.70;;;11.10;99.90;;;;;;6113800;23;20405;-84
2022/04/25 05:15:14;;;;;;;33.97;30.43;;;11.20;99.90;;;;;;6122244;23;20450;-81
2022/04/25 05:17:44;;;;;;;33.90;30.47;;;11.20;99.90;;;;;;6114648;23;20474;-82
2022/04/25 05:20:12;;;;;;;34.00;30.63;;;11.10;99.90;;;;;;6109438;23;20411;-83
2022/04/25 05:22:40;;;;;;;34.57;31.17;;;11.20;99.90;;;;;;6111954;23;20409;-83
2022/04/25 05:25:08;;;;;;;32.43;28.77;;;11.20;99.90;;;;;;6110166;23;20464;-83
2022/04/25 05:27:35;;;;;;;35.57;31.87;;;11.20;99.90;;;;;;6102545;23;20416;-83
2022/04/25 05:30:02;;;;;;;32.70;29.50;;;11.10;99.90;;;;;;6101059;23;20431;-82
2022/04/25 05:32:40;;;;;;;34.90;31.20;;;11.10;99.90;;;;;;6098951;23;20482;-83
2022/04/25 05:35:09;;;;;;;34.30;30.67;;;11.10;99.90;;;;;;6101128;23;20428;-83
2022/04/25 05:37:36;;;;;;;34.00;30.50;;;11.00;99.90;;;;;;6103896;23;20417;-82
2022/04/25 05:40:03;;;;;;;33.37;28.97;;;11.10;99.90;;;;;;6104891;23;20409;-82
2022/04/25 05:42:30;;;;;;;34.13;30.73;;;11.10;99.90;;;;;;6103121;23;20865;-82
2022/04/25 05:44:57;;;;;;;31.97;28.67;;;11.20;99.90;;;;;;6101576;23;20441;-81
2022/04/25 05:47:24;;;;;;;31.57;28.20;;;11.40;99.90;;;;;;6099142;23;20911;-83
2022/04/25 05:52:36;;;;;;;31.63;28.53;;;11.80;99.90;;;;;;6099608;23;20559;-83
2022/04/25 05:55:03;;;;;;;31.03;28.07;;;12.00;99.90;;;;;;6098587;23;20447;-83
2022/04/25 05:57:30;;;;;;;28.67;25.97;;;12.10;99.90;;;;;;6101477;23;20400;-82
2022/04/25 05:59:57;;;;;;;28.73;25.97;;;12.20;99.90;;;;;;6104330;23;20400;-82
2022/04/25 06:02:24;;;;;;;30.37;27.40;;;12.10;99.90;;;;;;6101180;23;20410;-82
2022/04/25 06:04:50;;;;;;;30.37;27.57;;;12.10;99.90;;;;;;6101654;23;20447;-80
2022/04/25 06:07:17;;;;;;;29.97;27.13;;;12.10;99.90;;;;;;6103601;23;20747;-82
2022/04/25 06:09:45;;;;;;;29.13;26.40;;;12.10;99.90;;;;;;6101556;23;20436;-81
2022/04/25 06:12:12;;;;;;;30.03;26.60;;;12.20;99.90;;;;;;6101670;23;20443;-81
2022/04/25 06:14:40;;;;;;;27.33;24.23;;;12.30;99.90;;;;;;6104269;23;20444;-82
2022/04/25 06:17:07;;;;;;;28.50;25.70;;;12.30;99.90;;;;;;6102201;23;20401;-82
2022/04/25 06:19:34;;;;;;;29.00;26.20;;;12.30;99.90;;;;;;6116730;23;20389;-82
2022/04/25 06:22:01;;;;;;;29.97;27.10;;;12.40;99.90;;;;;;6117582;23;20405;-82
2022/04/25 06:24:27;;;;;;;29.40;26.53;;;12.60;99.90;;;;;;6115288;23;20579;-81
2022/04/25 06:26:57;;;;;;;29.63;26.73;;;12.60;99.90;;;;;;6105656;23;20408;-82
2022/04/25 06:29:24;;;;;;;26.00;23.40;;;12.80;99.90;;;;;;6103508;23;20450;-82
2022/04/25 06:31:51;;;;;;;24.83;22.63;;;13.20;99.90;;;;;;6102904;23;20377;-82
2022/04/25 06:34:18;;;;;;;25.20;22.93;;;13.90;99.90;;;;;;6103465;23;20457;-81
2022/04/25 06:36:45;;;;;;;25.90;23.40;;;14.70;99.90;;;;;;6101518;23;20419;-81
2022/04/25 06:39:12;;;;;;;25.03;22.73;;;15.00;99.90;;;;;;6118468;23;20501;-80
2022/04/25 06:41:38;;;;;;;24.53;22.33;;;15.50;99.90;;;;;;6115341;23;20407;-82
2022/04/25 06:44:07;;;;;;;25.60;23.30;;;16.10;99.30;;;;;;6117675;23;20425;-81
2022/04/25 06:46:33;;;;;;;23.93;21.70;;;16.60;97.60;;;;;;6110882;23;20405;-82
2022/04/25 06:51:44;;;;;;;25.03;22.83;;;15.80;96.60;;;;;;6105415;23;20379;-82
2022/04/25 06:54:11;;;;;;;26.53;23.77;;;16.50;96.30;;;;;;6116250;23;20408;-81
2022/04/25 06:56:38;;;;;;;23.73;21.50;;;16.30;95.80;;;;;;6107210;23;20423;-82
2022/04/25 06:59:06;;;;;;;28.53;26.10;;;16.10;95.90;;;;;;6109494;23;20447;-82
2022/04/25 07:01:33;;;;;;;24.27;22.17;;;16.70;95.80;;;;;;6107994;23;20393;-82
2022/04/25 07:04:00;;;;;;;23.57;21.47;;;18.30;94.40;;;;;;6108829;23;20424;-81
2022/04/25 07:06:27;;;;;;;22.73;20.50;;;18.60;91.90;;;;;;6117359;23;20419;-81
2022/04/25 07:08:54;;;;;;;22.93;21.03;;;18.70;90.90;;;;;;6116182;23;20416;-82
2022/04/25 07:11:21;;;;;;;21.87;19.97;;;18.10;90.20;;;;;;6102440;23;20404;-81
2022/04/25 07:13:47;;;;;;;25.57;23.37;;;17.70;90.90;;;;;;6102117;23;20458;-82
2022/04/25 07:16:16;;;;;;;22.70;20.70;;;16.90;91.20;;;;;;6102880;23;20423;-81
2022/04/25 07:18:42;;;;;;;24.17;22.10;;;15.90;92.40;;;;;;6100657;23;20425;-81
2022/04/25 07:29:15;;;;;;;22.80;20.80;;;15.70;94.30;;;;;;6084528;23;20432;-82
2022/04/25 07:31:43;;;;;;;23.20;21.30;;;15.80;94.20;;;;;;6114490;23;20472;-80
2022/04/25 07:34:10;;;;;;;23.63;21.73;;;16.50;94.00;;;;;;6116299;23;20451;-81
2022/04/25 07:36:37;;;;;;;23.17;21.20;;;16.90;92.20;;;;;;6104845;23;20401;-83
2022/04/25 07:39:04;;;;;;;22.40;20.53;;;17.40;91.90;;;;;;6104026;23;20716;-83
2022/04/25 07:41:30;;;;;;;21.10;19.27;;;17.70;91.30;;;;;;6102267;23;20442;-83
2022/04/25 07:43:58;;;;;;;21.87;19.80;;;18.00;90.70;;;;;;6104408;23;20903;-82
2022/04/25 07:46:26;;;;;;;21.13;19.33;;;18.30;90.50;;;;;;6097978;23;20401;-83
2022/04/25 07:48:55;;;;;;;20.63;18.93;;;18.50;89.50;;;;;;6100497;23;20471;-82
2022/04/25 07:51:21;;;;;;;21.27;19.50;;;18.40;88.00;;;;;;6101843;23;20743;-83
2022/04/25 07:53:48;;;;;;;21.40;19.70;;;18.30;88.10;;;;;;6101598;23;20433;-83
2022/04/25 07:56:15;;;;;;;20.73;19.03;;;18.20;88.10;;;;;;6101716;23;20445;-81
2022/04/25 07:58:41;;;;;;;20.83;19.20;;;19.00;88.90;;;;;;6101427;23;20410;-82
2022/04/25 08:01:08;;;;;;;20.20;18.50;;;19.70;85.40;;;;;;6101994;23;20434;-82
2022/04/25 08:03:35;;;;;;;19.37;17.77;;;21.00;82.70;;;;;;6101934;23;20420;-83
2022/04/25 08:06:07;;;;;;;19.93;18.20;;;21.60;78.30;;;;;;6110578;23;20405;-81
2022/04/25 08:08:33;;;;;;;16.47;15.20;;;21.50;75.30;;;;;;6119436;23;20393;-81
2022/04/25 08:11:00;;;;;;;18.00;16.47;;;20.90;74.30;;;;;;6105176;23;20727;-81
2022/04/25 08:19:01;;;;;;;17.80;16.40;;;18.70;78.80;;;;;;6109216;23;20442;-82
2022/04/25 08:21:29;;;;;;;15.30;14.10;;;18.70;79.50;;;;;;6103924;23;20455;-81
2022/04/25 08:23:55;;;;;;;16.40;15.10;;;18.30;80.10;;;;;;6103840;23;20430;-81
2022/04/25 08:26:22;;;;;;;16.47;15.07;;;18.20;80.70;;;;;;6114442;23;20414;-81
2022/04/25 08:28:49;;;;;;;18.30;16.70;;;18.90;81.20;;;;;;6119510;23;20446;-82
2022/04/25 08:31:15;;;;;;;17.63;16.13;;;20.10;77.90;;;;;;6105225;23;20489;-83
2022/04/25 08:33:43;;;;;;;18.73;17.23;;;21.20;74.00;;;;;;6105757;23;20411;-81
2022/04/25 08:36:12;;;;;;;18.30;16.90;;;21.10;72.60;;;;;;6105590;23;20419;-82
2022/04/25 08:38:43;;;;;;;20.50;18.70;;;20.00;73.90;;;;;;6104317;23;20419;-82
2022/04/25 08:41:10;;;;;;;20.70;18.90;;;18.50;77.10;;;;;;6103998;23;20429;-82
2022/04/25 08:43:38;;;;;;;21.73;20.03;;;18.30;80.30;;;;;;6103623;23;20417;-82
2022/04/25 08:46:07;;;;;;;22.23;20.50;;;17.70;81.20;;;;;;6111411;23;20410;-82
2022/04/25 08:48:34;;;;;;;19.73;18.10;;;17.70;82.10;;;;;;6107058;23;20414;-83
2022/04/25 08:51:01;;;;;;;20.83;19.03;;;17.60;82.80;;;;;;6114694;23;20411;-82
2022/04/25 08:53:28;;;;;;;21.97;20.03;;;17.40;82.80;;;;;;6105981;23;20394;-82
2022/04/25 08:55:57;;;;;;;22.87;20.90;;;16.90;84.70;;;;;;6117056;23;20388;-81
2022/04/25 08:58:25;;;;;;;21.87;19.87;;;16.50;86.90;;;;;;6120926;23;20447;-82
2022/04/25 09:00:52;;;;;;;20.77;19.10;;;16.40;88.80;;;;;;6114840;23;20443;-82
2022/04/25 09:03:18;;;;;;;19.83;17.83;;;16.40;87.40;;;;;;6118669;23;20409;-82
2022/04/25 09:05:46;;;;;;;21.57;19.77;;;16.60;88.00;;;;;;6106350;23;20435;-82
2022/04/25 09:08:12;;;;;;;19.67;17.90;;;16.80;86.00;;;;;;6105773;23;20405;-82
2022/04/25 09:10:41;;;;;;;19.93;18.23;;;17.10;86.20;;;;;;6112593;23;20431;-82
2022/04/25 09:13:10;;;;;;;20.03;18.43;;;17.20;85.30;;;;;;6101266;23;20400;-83
2022/04/25 09:15:37;;;;;;;20.07;18.47;;;17.30;83.60;;;;;;6101975;23;20428;-82
2022/04/25 09:18:03;;;;;;;19.00;17.33;;;17.20;83.60;;;;;;6101747;23;20483;-82
2022/04/25 09:20:30;;;;;;;21.97;20.07;;;17.50;83.60;;;;;;6102611;23;20448;-83
2022/04/25 09:22:58;;;;;;;20.57;18.80;;;17.70;84.90;;;;;;6101613;23;20405;-83
2022/04/25 09:25:26;;;;;;;21.73;19.93;;;18.10;82.50;;;;;;6101860;23;20434;-83
2022/04/25 09:28:12;;;;;;;19.73;18.13;;;18.10;81.80;;;;;;6103088;23;20424;-83
2022/04/25 09:30:39;;;;;;;20.87;19.20;;;18.20;82.30;;;;;;6112512;23;20401;-81
2022/04/25 09:33:22;;;;;;;19.97;18.27;;;17.90;82.00;;;;;;6119522;23;20400;-82
2022/04/25 09:35:54;;;;;;;21.07;19.17;;;17.90;81.70;;;;;;6116605;23;20442;-82
2022/04/25 09:38:29;;;;;;;21.97;20.27;;;18.00;82.30;;;;;;6114444;23;20457;-83
2022/04/25 09:40:56;;;;;;;20.80;18.97;;;18.00;82.10;;;;;;6105447;23;20439;-83
2022/04/25 09:43:30;;;;;;;19.40;17.70;;;17.80;82.50;;;;;;6105425;23;20421;-83
2022/04/25 09:46:00;;;;;;;18.17;16.67;;;18.10;82.50;;;;;;6105020;23;20391;-81
2022/04/25 09:48:27;;;;;;;20.07;18.37;;;18.40;81.00;;;;;;6112145;23;20433;-82
2022/04/25 09:51:02;;;;;;;21.37;19.47;;;18.50;79.90;;;;;;6111470;23;20481;-81
2022/04/25 09:53:45;;;;;;;19.63;17.87;;;18.50;79.70;;;;;;6113421;23;20436;-82
2022/04/25 09:56:14;;;;;;;19.07;17.50;;;18.40;81.10;;;;;;6106602;23;20406;-82
2022/04/25 09:58:45;;;;;;;19.67;18.07;;;18.20;80.20;;;;;;6105717;23;20420;-82
2022/04/25 10:01:13;;;;;;;21.10;19.30;;;18.60;80.20;;;;;;6104152;23;20440;-82
2022/04/25 10:03:41;;;;;;;19.37;17.80;;;19.60;78.20;;;;;;6104167;23;20507;-83
2022/04/25 10:06:09;;;;;;;19.40;17.60;;;21.60;74.40;;;;;;6106148;23;20447;-82
2022/04/25 10:08:37;;;;;;;19.27;17.77;;;22.80;67.90;;;;;;6116942;23;20472;-81
2022/04/25 10:11:06;;;;;;;18.07;16.57;;;23.30;64.80;;;;;;6112270;23;20405;-82
2022/04/25 10:13:35;;;;;;;17.47;16.07;;;23.60;62.40;;;;;;6113340;23;20409;-80
2022/04/25 10:16:04;;;;;;;18.30;16.80;;;23.00;62.60;;;;;;6114674;23;20440;-82
2022/04/25 10:18:32;;;;;;;22.83;20.87;;;22.30;64.40;;;;;;6112008;23;20439;-81
2022/04/25 10:20:59;;;;;;;19.33;17.63;;;22.00;65.80;;;;;;6109486;23;20504;-81
2022/04/25 10:23:27;;;;;;;18.10;16.53;;;21.60;64.70;;;;;;6101724;23;20413;-83
2022/04/25 10:25:55;;;;;;;19.87;18.23;;;21.80;64.90;;;;;;6120323;23;20404;-81
2022/04/25 10:28:27;;;;;;;18.90;17.30;;;21.00;67.10;;;;;;6121949;23;20401;-80
2022/04/25 10:31:02;;;;;;;18.37;16.83;;;19.80;69.50;;;;;;6122470;23;20391;-81
2022/04/25 10:33:49;;;;;;;18.87;17.37;;;19.30;72.80;;;;;;6123340;23;20453;-80
2022/04/25 10:36:43;;;;;;;18.97;17.47;;;19.30;72.10;;;;;;6123143;23;20383;-80
2022/04/25 10:39:12;;;;;;;19.57;17.67;;;19.70;72.20;;;;;;6123206;23;20422;-80
2022/04/25 10:44:50;;;;;;;20.07;18.37;;;20.10;71.50;;;;;;6123276;23;20412;-80
2022/04/25 10:47:19;;;;;;;18.10;16.70;;;21.20;69.00;;;;;;6123022;23;20391;-81
2022/04/25 10:49:49;;;;;;;18.30;16.87;;;21.80;67.20;;;;;;6123340;23;20388;-80
2022/04/25 10:53:01;;;;;;;19.37;17.97;;;22.00;64.10;;;;;;6123014;23;20427;-81
2022/04/25 10:55:46;;;;;;;19.37;17.87;;;22.20;63.20;;;;;;6123318;23;20426;-81
2022/04/25 10:58:21;;;;;;;19.57;17.77;;;22.10;65.10;;;;;;6123404;23;20392;-81
2022/04/25 11:00:56;;;;;;;17.90;16.50;;;22.10;64.80;;;;;;6114172;23;20452;-82
2022/04/25 11:03:30;;;;;;;17.93;16.57;;;22.00;62.60;;;;;;6105630;23;20391;-82
2022/04/25 11:06:00;;;;;;;17.17;15.67;;;21.80;62.60;;;;;;6104387;23;20392;-83
2022/04/25 11:08:29;;;;;;;18.47;17.07;;;21.40;63.20;;;;;;6105736;23;20514;-82
2022/04/25 11:11:18;;;;;;;16.87;15.40;;;21.20;64.50;;;;;;6104605;23;20409;-82
2022/04/25 11:14:14;;;;;;;17.70;16.23;;;21.10;64.40;;;;;;6115137;23;20464;-82
2022/04/25 11:16:41;;;;;;;18.50;16.80;;;21.30;64.20;;;;;;6117292;23;20418;-83
2022/04/25 11:19:19;;;;;;;16.83;15.50;;;21.00;64.50;;;;;;6119666;23;20393;-81
2022/04/25 11:21:49;;;;;;;18.20;16.40;;;21.10;65.00;;;;;;6119276;23;20443;-81
2022/04/25 11:24:30;;;;;;;17.47;15.97;;;21.00;65.30;;;;;;6107227;23;20439;-82
2022/04/25 11:26:59;;;;;;;17.13;15.77;;;20.50;66.00;;;;;;6110599;23;20407;-82
2022/04/25 11:29:25;;;;;;;15.43;14.13;;;20.50;66.20;;;;;;6109391;23;20475;-82
2022/04/25 11:31:52;;;;;;;15.23;14.03;;;20.60;65.80;;;;;;6108002;23;20412;-82
2022/04/25 11:34:22;;;;;;;15.80;14.60;;;21.00;65.80;;;;;;6106726;23;20435;-83
2022/04/25 11:36:50;;;;;;;15.60;14.40;;;21.20;64.20;;;;;;6122837;23;20416;-81
2022/04/25 11:42:02;;;;;;;16.40;15.10;;;20.50;63.50;;;;;;6105779;23;20444;-81
2022/04/25 11:44:29;;;;;;;16.77;15.47;;;20.10;65.60;;;;;;6120091;23;20429;-81
2022/04/25 11:46:56;;;;;;;16.80;15.50;;;19.80;67.10;;;;;;6116228;23;20407;-82
2022/04/25 11:49:30;;;;;;;16.47;14.97;;;19.70;68.20;;;;;;6106011;23;20411;-82
2022/04/25 11:52:01;;;;;;;18.20;16.70;;;19.50;68.40;;;;;;6114372;23;20498;-81
2022/04/25 11:54:32;;;;;;;17.60;15.87;;;19.30;69.50;;;;;;6115696;23;20814;-82
2022/04/25 11:57:00;;;;;;;18.27;16.77;;;19.00;70.20;;;;;;6105670;23;20398;-82
2022/04/25 11:59:27;;;;;;;17.30;15.90;;;18.80;71.60;;;;;;6105752;23;20407;-82
2022/04/25 12:01:53;;;;;;;17.37;15.97;;;18.60;72.20;;;;;;6105717;23;20481;-82
2022/04/25 12:04:21;;;;;;;19.43;17.90;;;18.30;73.40;;;;;;6105270;23;20432;-83
2022/04/25 12:06:52;;;;;;;20.77;19.03;;;18.20;76.70;;;;;;6111001;23;20413;-82
2022/04/25 12:17:42;;;;;;;28.23;25.50;;;16.50;90.90;;;;;;6115562;23;20409;-82
2022/04/25 12:20:11;;;;;;;27.73;25.23;;;16.10;93.60;;;;;;6116280;23;20396;-84
2022/04/25 12:22:39;;;;;;;27.60;25.10;;;15.80;96.40;;;;;;6107060;23;20408;-82
2022/04/25 12:25:16;;;;;;;29.20;26.33;;;15.40;98.90;;;;;;6107616;23;20428;-83
2022/04/25 12:28:06;;;;;;;29.63;26.73;;;15.00;99.00;;;;;;6108866;23;20392;-83
2022/04/25 12:30:48;;;;;;;35.67;31.80;;;14.80;99.90;;;;;;6105860;23;20396;-83
2022/04/25 12:33:16;;;;;;;35.93;32.43;;;14.70;99.90;;;;;;6106084;23;20401;-83
2022/04/25 12:35:44;;;;;;;41.50;36.60;;;14.70;99.90;;;;;;6105005;23;20428;-83
2022/04/25 12:38:31;;;;;;;34.17;30.70;;;14.80;99.90;;;;;;6103262;23;20423;-84
2022/04/25 12:41:00;;;;;;;32.03;28.73;;;14.90;99.90;;;;;;6105836;23;20447;-83
2022/04/25 12:43:41;;;;;;;29.83;27.10;;;15.00;99.90;;;;;;6106711;23;20415;-82
2022/04/25 12:46:08;;;;;;;25.67;23.47;;;15.20;99.90;;;;;;6110891;23;20410;-83
2022/04/25 12:49:12;;;;;;;27.67;25.20;;;15.40;99.90;;;;;;6118453;23;20400;-81
2022/04/25 12:51:41;;;;;;;24.47;22.27;;;15.60;99.90;;;;;;6109348;23;20399;-84
2022/04/25 12:54:20;;;;;;;25.93;23.63;;;15.90;99.90;;;;;;6105529;23;20451;-83
2022/04/25 12:56:49;;;;;;;24.30;22.20;;;16.10;99.90;;;;;;6108254;23;20397;-83
2022/04/25 12:59:27;;;;;;;25.40;23.20;;;16.10;99.90;;;;;;6110871;23;20748;-83
2022/04/25 13:02:04;;;;;;;27.63;25.03;;;16.30;99.90;;;;;;6109514;23;20424;-82
2022/04/25 13:04:31;;;;;;;26.30;23.67;;;16.50;99.90;;;;;;6112035;23;20417;-83
2022/04/25 13:06:58;;;;;;;22.47;20.60;;;16.70;99.90;;;;;;6109684;23;20413;-83
2022/04/25 13:09:24;;;;;;;27.50;25.00;;;16.80;99.90;;;;;;6110399;23;20405;-83
2022/04/25 13:11:53;;;;;;;26.33;23.93;;;17.00;99.70;;;;;;6106409;23;20408;-84
2022/04/25 13:14:19;;;;;;;26.73;24.47;;;17.20;99.40;;;;;;6103825;23;20441;-84
2022/04/25 13:16:46;;;;;;;25.53;23.23;;;17.20;98.10;;;;;;6105967;23;20405;-83
2022/04/25 13:19:13;;;;;;;23.50;21.57;;;17.00;99.00;;;;;;6108122;23;20415;-82